createdAt,value
2019-06-27T00:01:27.931Z,99.60
2019-06-27T00:03:56.496Z,100.00
2019-06-27T00:06:25.076Z,97.00
2019-06-27T00:08:53.709Z,100.00
2019-06-27T00:11:22.298Z,99.44
2019-06-27T00:13:50.888Z,100.00
2019-06-27T00:16:19.490Z,100.00
2019-06-27T00:18:48.082Z,100.00
2019-06-27T00:21:16.671Z,100.00
2019-06-27T00:23:45.967Z,100.00
2019-06-27T00:26:14.621Z,100.00
2019-06-27T00:28:43.220Z,100.00
2019-06-27T00:31:11.824Z,100.00
2019-06-27T00:33:40.491Z,100.00
2019-06-27T00:36:09.070Z,100.00
2019-06-27T00:38:37.685Z,100.00
2019-06-27T00:41:06.274Z,100.00
2019-06-27T00:43:34.896Z,100.00
2019-06-27T00:46:03.477Z,100.00
2019-06-27T00:48:32.113Z,100.00
2019-06-27T00:51:00.709Z,100.00
2019-06-27T00:53:29.365Z,100.00
2019-06-27T00:55:57.966Z,100.00
2019-06-27T00:58:26.620Z,100.00
2019-06-27T01:00:55.204Z,100.00
2019-06-27T01:03:23.810Z,100.00
2019-06-27T01:05:52.398Z,100.00
2019-06-27T01:08:21.017Z,100.00
2019-06-27T01:10:49.605Z,100.00
2019-06-27T01:13:18.313Z,100.00
2019-06-27T01:15:46.900Z,100.00
2019-06-27T01:18:15.488Z,100.00
2019-06-27T01:20:44.147Z,100.00
2019-06-27T01:23:12.862Z,100.00
2019-06-27T01:25:41.430Z,100.00
2019-06-27T01:28:10.080Z,100.00
2019-06-27T01:30:38.696Z,100.00
2019-06-27T01:33:07.343Z,100.00
2019-06-27T01:35:35.905Z,100.00
2019-06-27T01:38:04.614Z,100.00
2019-06-27T01:40:33.204Z,100.00
2019-06-27T01:43:01.913Z,100.00
2019-06-27T01:45:37.793Z,100.00
2019-06-27T01:48:06.555Z,100.00
2019-06-27T01:50:35.304Z,100.00
2019-06-27T01:53:04.034Z,100.00
2019-06-27T01:55:32.601Z,100.00
2019-06-27T01:58:01.294Z,100.00
2019-06-27T02:00:29.992Z,100.00
2019-06-27T02:02:58.744Z,100.00
2019-06-27T02:05:27.305Z,100.00
2019-06-27T02:07:56.043Z,100.00
2019-06-27T02:10:24.669Z,100.00
2019-06-27T02:12:53.420Z,100.00
2019-06-27T02:15:22.551Z,100.00
2019-06-27T02:17:51.152Z,100.00
2019-06-27T02:20:19.860Z,100.00
2019-06-27T02:22:48.495Z,100.00
2019-06-27T02:25:17.812Z,100.00
2019-06-27T02:28:02.147Z,100.00
2019-06-27T02:30:19.939Z,100.00
2019-06-27T02:32:48.578Z,100.00
2019-06-27T02:35:17.344Z,100.00
2019-06-27T02:37:46.071Z,100.00
2019-06-27T02:40:14.637Z,100.00
2019-06-27T02:42:43.297Z,100.00
2019-06-27T02:45:12.237Z,100.00
2019-06-27T02:47:40.878Z,100.00
2019-06-27T02:50:09.506Z,100.00
2019-06-27T02:52:38.158Z,100.00
2019-06-27T02:55:06.820Z,100.00
2019-06-27T02:57:35.510Z,100.00
2019-06-27T03:00:06.019Z,100.00
2019-06-27T03:02:34.632Z,100.00
2019-06-27T03:05:04.847Z,100.00
2019-06-27T03:07:33.484Z,100.00
2019-06-27T03:10:02.155Z,100.00
2019-06-27T03:12:31.030Z,100.00
2019-06-27T03:14:59.640Z,100.00
2019-06-27T03:17:28.337Z,100.00
2019-06-27T03:19:56.895Z,100.00
2019-06-27T03:22:25.571Z,100.00
2019-06-27T03:24:54.155Z,100.00
2019-06-27T03:27:22.784Z,100.00
2019-06-27T03:29:51.369Z,100.00
2019-06-27T03:32:20.075Z,100.00
2019-06-27T03:34:48.641Z,100.00
2019-06-27T03:37:17.251Z,100.00
2019-06-27T03:39:45.906Z,100.00
2019-06-27T03:42:14.489Z,100.00
2019-06-27T03:44:43.109Z,100.00
2019-06-27T03:47:11.729Z,100.00
2019-06-27T03:49:40.315Z,100.00
2019-06-27T03:52:08.965Z,100.00
2019-06-27T03:54:37.563Z,100.00
2019-06-27T03:57:06.166Z,100.00
2019-06-27T03:59:34.780Z,100.00
2019-06-27T04:02:03.432Z,100.00
2019-06-27T04:04:32.067Z,100.00
2019-06-27T04:07:00.655Z,100.00
2019-06-27T04:09:29.244Z,100.00
2019-06-27T04:11:57.808Z,100.00
2019-06-27T04:14:26.458Z,99.69
2019-06-27T04:16:55.017Z,100.00
2019-06-27T04:19:23.663Z,100.00
2019-06-27T04:21:52.242Z,100.00
2019-06-27T04:24:20.828Z,100.00
2019-06-27T04:26:49.521Z,100.00
2019-06-27T04:29:32.768Z,100.00
2019-06-27T04:31:48.426Z,100.00
2019-06-27T04:34:19.924Z,100.00
2019-06-27T04:36:47.382Z,100.00
2019-06-27T04:39:16.010Z,100.00
2019-06-27T04:41:44.640Z,100.00
2019-06-27T04:44:13.289Z,100.00
2019-06-27T04:46:42.294Z,100.00
2019-06-27T04:49:13.593Z,100.00
2019-06-27T04:51:41.285Z,100.00
2019-06-27T04:54:09.958Z,100.00
2019-06-27T04:56:38.563Z,100.00
2019-06-27T04:59:07.175Z,100.00
2019-06-27T05:01:35.742Z,100.00
2019-06-27T05:04:04.351Z,100.00
2019-06-27T05:06:32.980Z,98.16
2019-06-27T05:09:01.616Z,99.04
2019-06-27T05:11:30.195Z,98.64
2019-06-27T05:13:58.824Z,100.00
2019-06-27T05:16:27.380Z,100.00
2019-06-27T05:18:55.992Z,100.00
2019-06-27T05:21:24.553Z,96.25
2019-06-27T05:23:53.156Z,99.77
2019-06-27T05:26:21.720Z,96.52
2019-06-27T05:28:50.354Z,96.85
2019-06-27T05:31:18.907Z,93.91
2019-06-27T05:33:47.630Z,94.42
2019-06-27T05:36:16.200Z,96.71
2019-06-27T05:38:45.586Z,93.40
2019-06-27T05:41:14.170Z,89.79
2019-06-27T05:43:42.790Z,88.70
2019-06-27T05:46:11.353Z,90.63
2019-06-27T05:48:40.020Z,89.51
2019-06-27T05:51:08.556Z,92.54
2019-06-27T05:53:37.196Z,90.86
2019-06-27T05:56:05.822Z,95.35
2019-06-27T06:40:10.099Z,75.63
2019-06-27T06:42:38.926Z,75.00
2019-06-27T06:45:08.021Z,77.82
2019-06-27T06:47:36.589Z,77.85
2019-06-27T06:50:06.490Z,76.87
2019-06-27T06:52:35.065Z,77.73
2019-06-27T06:55:05.150Z,76.59
2019-06-27T06:57:33.724Z,75.14
2019-06-27T07:00:02.270Z,75.43
2019-06-27T07:02:30.846Z,74.19
2019-06-27T07:04:59.355Z,74.73
2019-06-27T07:07:27.913Z,73.04
2019-06-27T07:09:56.426Z,71.41
2019-06-27T07:12:24.976Z,69.64
2019-06-27T07:14:53.502Z,72.66
2019-06-27T07:17:24.527Z,72.33
2019-06-27T07:19:53.021Z,73.12
2019-06-27T07:22:21.518Z,75.93
2019-06-27T07:24:49.998Z,73.44
2019-06-27T07:27:18.544Z,74.05
2019-06-27T07:29:47.083Z,77.10
2019-06-27T07:32:15.999Z,77.25
2019-06-27T07:34:45.069Z,73.68
2019-06-27T07:37:13.581Z,73.65
2019-06-27T07:39:42.141Z,72.72
2019-06-27T07:42:10.615Z,73.61
2019-06-27T07:44:39.134Z,72.96
2019-06-27T07:47:07.661Z,72.73
2019-06-27T07:49:36.221Z,72.31
2019-06-27T07:52:04.704Z,70.79
2019-06-27T07:54:33.257Z,70.78
2019-06-27T07:57:01.786Z,69.45
2019-06-27T07:59:30.337Z,69.22
2019-06-27T08:01:58.840Z,70.46
2019-06-27T08:04:28.004Z,69.90
2019-06-27T08:06:56.840Z,68.61
2019-06-27T08:09:25.349Z,69.77
2019-06-27T08:11:53.912Z,72.31
2019-06-27T08:14:22.530Z,71.26
2019-06-27T08:16:51.527Z,72.17
2019-06-27T08:19:20.010Z,71.37
2019-06-27T08:21:48.535Z,70.78
2019-06-27T08:24:17.098Z,70.89
2019-06-27T08:26:45.624Z,70.59
2019-06-27T08:29:14.211Z,70.18
2019-06-27T08:31:51.368Z,68.95
2019-06-27T08:34:13.036Z,67.53
2019-06-27T08:36:41.512Z,67.09
2019-06-27T08:39:10.371Z,65.56
2019-06-27T08:41:38.884Z,64.16
2019-06-27T08:44:09.502Z,63.86
2019-06-27T08:46:37.958Z,62.30
2019-06-27T08:49:06.513Z,62.81
2019-06-27T08:51:34.989Z,61.75
2019-06-27T08:54:03.493Z,61.78
2019-06-27T08:56:33.523Z,63.50
2019-06-27T08:59:02.111Z,62.23
2019-06-27T09:01:30.603Z,60.79
2019-06-27T09:03:59.199Z,62.38
2019-06-27T09:06:27.651Z,60.71
2019-06-27T09:08:56.205Z,60.33
2019-06-27T09:11:24.706Z,61.32
2019-06-27T09:13:53.230Z,61.36
2019-06-27T09:16:21.736Z,60.42
2019-06-27T09:18:50.203Z,60.75
2019-06-27T09:21:18.703Z,58.65
2019-06-27T09:23:47.225Z,58.20
2019-06-27T09:26:15.726Z,57.62
2019-06-27T09:28:44.676Z,56.65
2019-06-27T09:31:13.194Z,57.32
2019-06-27T09:33:41.860Z,57.75
2019-06-27T09:36:10.376Z,58.40
2019-06-27T09:38:38.930Z,57.28
2019-06-27T09:41:07.438Z,55.33
2019-06-27T09:43:35.985Z,56.02
2019-06-27T09:46:04.442Z,54.83
2019-06-27T09:48:33.370Z,54.37
2019-06-27T09:51:01.895Z,56.24
2019-06-27T09:53:30.522Z,54.93
2019-06-27T09:55:59.002Z,55.64
2019-06-27T09:58:27.955Z,54.41
2019-06-27T10:00:57.230Z,55.16
2019-06-27T10:03:25.866Z,54.71
2019-06-27T10:05:54.347Z,53.76
2019-06-27T10:08:22.879Z,52.54
2019-06-27T10:10:51.377Z,52.00
2019-06-27T10:13:19.916Z,50.33
2019-06-27T10:15:48.408Z,49.85
2019-06-27T10:18:16.963Z,49.38
2019-06-27T10:20:45.479Z,50.65
2019-06-27T10:23:15.147Z,48.89
2019-06-27T10:25:43.976Z,48.04
2019-06-27T10:28:12.823Z,47.65
2019-06-27T10:30:41.342Z,47.08
2019-06-27T10:33:09.887Z,47.40
2019-06-27T10:35:38.374Z,48.92
2019-06-27T10:38:06.960Z,48.18
2019-06-27T10:40:35.739Z,48.14
2019-06-27T10:43:04.666Z,49.93
2019-06-27T10:45:33.185Z,48.29
2019-06-27T10:48:01.735Z,48.25
2019-06-27T10:50:30.201Z,46.90
2019-06-27T10:52:58.677Z,45.77
2019-06-27T10:55:27.978Z,46.80
2019-06-27T10:57:56.500Z,47.53
2019-06-27T11:00:25.087Z,48.30
2019-06-27T11:02:53.948Z,47.41
2019-06-27T11:05:22.491Z,47.09
2019-06-27T11:07:51.079Z,46.65
2019-06-27T11:10:19.577Z,45.42
2019-06-27T11:12:48.138Z,45.70
2019-06-27T11:15:17.826Z,46.42
2019-06-27T11:17:46.336Z,46.68
2019-06-27T11:20:15.971Z,45.80
2019-06-27T11:22:44.569Z,45.88
2019-06-27T11:25:13.313Z,45.53
2019-06-27T11:27:41.831Z,45.67
2019-06-27T11:30:10.941Z,45.15
2019-06-27T11:32:40.666Z,44.47
2019-06-27T11:35:09.573Z,44.51
2019-06-27T11:37:38.139Z,44.33
2019-06-27T11:40:11.746Z,43.60
2019-06-27T11:42:38.535Z,43.50
2019-06-27T11:45:08.138Z,43.28
2019-06-27T11:47:38.302Z,44.29
2019-06-27T11:50:07.084Z,44.20
2019-06-27T11:52:36.265Z,44.08
2019-06-27T11:55:05.225Z,44.21
2019-06-27T11:57:33.781Z,45.16
2019-06-27T12:00:02.705Z,44.16
2019-06-27T12:02:31.207Z,44.79
2019-06-27T12:04:59.751Z,44.62
2019-06-27T12:07:28.218Z,45.20
2019-06-27T12:09:56.769Z,44.63
2019-06-27T12:12:25.306Z,45.03
2019-06-27T12:14:53.884Z,45.40
2019-06-27T12:17:22.378Z,45.67
2019-06-27T12:19:51.348Z,45.63
2019-06-27T12:22:19.842Z,45.74
2019-06-27T12:24:48.491Z,45.37
2019-06-27T12:27:18.585Z,45.57
2019-06-27T12:29:47.082Z,45.27
2019-06-27T12:32:15.573Z,45.97
2019-06-27T12:34:44.177Z,45.77
2019-06-27T12:37:12.733Z,45.51
2019-06-27T12:39:41.322Z,45.90
2019-06-27T12:42:09.829Z,45.25
2019-06-27T12:44:38.667Z,45.02
2019-06-27T12:47:07.172Z,45.22
2019-06-27T12:49:50.036Z,44.49
2019-06-27T12:52:05.947Z,44.94
2019-06-27T12:54:35.486Z,45.00
2019-06-27T12:57:04.043Z,45.74
2019-06-27T12:59:32.581Z,45.55
2019-06-27T13:02:01.094Z,44.74
2019-06-27T13:04:29.682Z,45.11
2019-06-27T13:06:59.645Z,44.96
2019-06-27T13:09:29.483Z,44.69
2019-06-27T13:11:58.062Z,44.94
2019-06-27T13:14:26.569Z,44.83
2019-06-27T13:16:55.043Z,44.74
2019-06-27T13:19:23.566Z,44.31
2019-06-27T13:21:52.042Z,44.62
2019-06-27T13:24:20.565Z,44.85
2019-06-27T13:26:51.011Z,43.46
2019-06-27T13:29:19.553Z,43.17
2019-06-27T13:31:48.035Z,43.09
2019-06-27T13:34:16.625Z,43.35
2019-06-27T13:36:45.073Z,43.27
2019-06-27T13:39:13.651Z,41.93
2019-06-27T13:41:42.158Z,41.86
2019-06-27T13:44:10.661Z,42.32
2019-06-27T13:46:39.146Z,42.13
2019-06-27T13:49:07.759Z,41.91
2019-06-27T13:51:36.269Z,42.23
2019-06-27T13:54:04.842Z,42.12
2019-06-27T13:56:33.377Z,41.74
2019-06-27T13:59:01.941Z,41.65
2019-06-27T14:01:30.501Z,42.20
2019-06-27T14:03:58.994Z,41.83
2019-06-27T14:06:27.536Z,41.28
2019-06-27T14:08:56.042Z,41.76
2019-06-27T14:11:24.919Z,40.35
2019-06-27T14:13:54.501Z,40.83
2019-06-27T14:16:23.022Z,41.48
2019-06-27T14:18:51.594Z,38.61
2019-06-27T14:21:20.121Z,39.08
2019-06-27T14:23:48.677Z,40.23
2019-06-27T14:26:17.598Z,40.83
2019-06-27T14:28:46.132Z,40.84
2019-06-27T14:31:14.577Z,39.09
2019-06-27T14:33:43.166Z,40.35
2019-06-27T14:36:11.717Z,40.35
2019-06-27T14:38:40.266Z,39.70
2019-06-27T14:41:08.767Z,38.95
2019-06-27T14:43:38.051Z,40.57
2019-06-27T14:46:06.611Z,40.79
2019-06-27T14:48:35.152Z,40.74
2019-06-27T14:51:03.638Z,40.44
2019-06-27T14:53:32.158Z,41.44
2019-06-27T14:56:00.649Z,41.20
2019-06-27T14:58:33.111Z,40.50
2019-06-27T15:00:59.324Z,40.21
2019-06-27T15:03:27.803Z,40.76
2019-06-27T15:05:59.493Z,40.75
2019-06-27T15:08:26.574Z,41.16
2019-06-27T15:10:55.100Z,41.48
2019-06-27T15:13:26.516Z,41.27
2019-06-27T15:16:10.635Z,40.49
2019-06-27T15:18:25.249Z,40.18
2019-06-27T15:20:53.727Z,40.89
2019-06-27T15:23:22.266Z,40.71
2019-06-27T15:25:50.727Z,40.20
2019-06-27T15:28:19.280Z,40.98
2019-06-27T15:30:48.206Z,40.77
2019-06-27T15:33:17.325Z,41.09
2019-06-27T15:35:52.232Z,41.25
2019-06-27T15:38:19.032Z,41.17
2019-06-27T15:40:47.616Z,41.72
2019-06-27T15:43:16.106Z,42.46
2019-06-27T15:45:44.682Z,42.47
2019-06-27T15:48:13.188Z,43.19
2019-06-27T15:50:41.729Z,42.75
2019-06-27T15:53:10.311Z,42.44
2019-06-27T15:55:38.854Z,42.78
2019-06-27T15:58:07.370Z,42.50
2019-06-27T16:00:39.459Z,43.07
2019-06-27T16:03:06.832Z,43.81
2019-06-27T16:05:35.484Z,44.11
2019-06-27T16:08:04.042Z,44.38
2019-06-27T16:10:32.878Z,44.82
2019-06-27T16:13:02.845Z,45.39
2019-06-27T16:15:31.698Z,45.35
2019-06-27T16:18:00.165Z,45.10
2019-06-27T16:20:28.760Z,45.31
2019-06-27T16:22:57.396Z,45.93
2019-06-27T16:25:25.987Z,47.05
2019-06-27T16:27:54.502Z,47.54
2019-06-27T16:30:25.122Z,48.28
2019-06-27T16:32:56.555Z,48.95
2019-06-27T16:35:25.165Z,49.06
2019-06-27T16:37:53.677Z,49.66
2019-06-27T16:40:22.309Z,49.63
2019-06-27T16:42:51.330Z,50.42
2019-06-27T16:45:20.915Z,50.69
2019-06-27T16:47:49.420Z,51.00
2019-06-27T16:50:18.941Z,50.93
2019-06-27T16:52:47.433Z,51.83
2019-06-27T16:55:16.010Z,51.07
2019-06-27T16:57:44.474Z,50.26
2019-06-27T17:00:13.142Z,51.27
2019-06-27T17:02:41.725Z,50.75
2019-06-27T17:05:10.341Z,50.27
2019-06-27T17:07:38.839Z,50.48
2019-06-27T17:10:09.274Z,50.56
2019-06-27T17:12:40.839Z,50.60
2019-06-27T17:15:09.923Z,51.45
2019-06-27T17:17:38.438Z,51.60
2019-06-27T17:20:07.685Z,52.05
2019-06-27T17:22:36.235Z,51.88
2019-06-27T17:25:06.441Z,51.80
2019-06-27T17:27:35.296Z,52.28
2019-06-27T17:30:06.034Z,52.45
2019-06-27T17:32:34.544Z,52.48
2019-06-27T17:35:03.283Z,53.39
2019-06-27T17:37:32.174Z,53.32
2019-06-27T17:40:00.753Z,54.27
2019-06-27T17:42:29.237Z,54.21
2019-06-27T17:44:57.804Z,55.75
2019-06-27T17:47:26.357Z,55.85
2019-06-27T17:49:56.739Z,56.28
2019-06-27T17:52:31.294Z,56.49
2019-06-27T17:55:01.515Z,55.68
2019-06-27T17:57:30.070Z,56.31
2019-06-27T17:59:58.568Z,56.47
2019-06-27T18:02:27.218Z,57.66
2019-06-27T18:04:55.693Z,57.36
2019-06-27T18:07:24.203Z,57.76
2019-06-27T18:09:52.803Z,58.18
2019-06-27T18:12:21.366Z,58.91
2019-06-27T18:14:49.900Z,59.12
2019-06-27T18:17:32.382Z,59.01
2019-06-27T18:19:48.913Z,59.79
2019-06-27T18:22:17.729Z,60.33
2019-06-27T18:24:46.250Z,60.60
2019-06-27T18:27:14.723Z,61.12
2019-06-27T18:29:43.280Z,61.65
2019-06-27T18:32:11.777Z,62.24
2019-06-27T18:34:48.237Z,62.48
2019-06-27T18:37:29.137Z,62.24
2019-06-27T18:39:53.215Z,63.68
2019-06-27T18:42:24.608Z,63.41
2019-06-27T18:44:53.122Z,64.01
2019-06-27T18:47:24.452Z,63.66
2019-06-27T18:49:53.954Z,63.80
2019-06-27T18:52:22.523Z,64.39
2019-06-27T18:54:51.064Z,64.66
2019-06-27T18:57:19.588Z,63.99
2019-06-27T18:59:48.143Z,65.02
2019-06-27T19:02:16.622Z,66.04
2019-06-27T19:04:45.220Z,65.74
2019-06-27T19:07:13.690Z,66.01
2019-06-27T19:09:42.219Z,66.43
2019-06-27T19:12:11.369Z,67.03
2019-06-27T19:14:39.897Z,66.80
2019-06-27T19:17:08.404Z,67.05
2019-06-27T19:19:38.557Z,67.87
2019-06-27T19:22:08.669Z,67.25
2019-06-27T19:24:38.858Z,68.13
2019-06-27T19:27:07.450Z,67.78
2019-06-27T19:29:35.928Z,68.62
2019-06-27T19:32:04.401Z,68.89
2019-06-27T19:34:32.922Z,68.75
2019-06-27T19:37:01.445Z,69.67
2019-06-27T19:39:30.281Z,69.37
2019-06-27T19:41:58.746Z,70.36
2019-06-27T19:44:27.279Z,69.82
2019-06-27T19:46:55.782Z,69.79
2019-06-27T19:49:24.318Z,70.11
2019-06-27T19:51:52.824Z,70.09
2019-06-27T19:54:21.367Z,71.24
2019-06-27T19:56:49.876Z,71.15
2019-06-27T19:59:25.000Z,71.82
2019-06-27T20:01:51.697Z,71.25
2019-06-27T20:04:41.391Z,72.84
2019-06-27T20:07:11.833Z,72.71
2019-06-27T20:09:40.342Z,72.58
2019-06-27T20:12:08.932Z,72.28
2019-06-27T20:14:37.443Z,71.72
2019-06-27T20:17:06.135Z,72.79
2019-06-27T20:19:34.652Z,73.61
2019-06-27T20:22:03.187Z,73.82
2019-06-27T20:24:33.149Z,73.79
2019-06-27T20:27:01.711Z,74.05
2019-06-27T20:29:30.905Z,74.10
2019-06-27T20:31:59.672Z,75.66
2019-06-27T20:34:28.113Z,75.53
2019-06-27T20:36:56.764Z,75.69
2019-06-27T20:39:25.226Z,76.74
2019-06-27T20:41:54.113Z,77.68
2019-06-27T20:44:24.853Z,77.56
2019-06-27T20:46:53.498Z,77.96
2019-06-27T20:49:21.965Z,77.15
2019-06-27T20:51:51.583Z,78.41
2019-06-27T20:54:20.200Z,79.39
2019-06-27T20:56:48.797Z,78.99
2019-06-27T20:59:17.307Z,78.83
2019-06-27T21:01:45.843Z,78.91
2019-06-27T21:04:14.354Z,80.12
2019-06-27T21:06:42.869Z,79.86
2019-06-27T21:09:11.422Z,80.50
2019-06-27T21:11:39.963Z,79.79
2019-06-27T21:14:08.429Z,80.95
2019-06-27T21:16:36.928Z,80.28
2019-06-27T21:19:05.437Z,79.99
2019-06-27T21:21:34.038Z,80.31
2019-06-27T21:24:02.617Z,80.12
2019-06-27T21:26:31.211Z,80.74
2019-06-27T21:28:59.692Z,81.14
2019-06-27T21:31:28.265Z,81.26
2019-06-27T21:33:56.749Z,82.24
2019-06-27T21:36:25.292Z,82.13
2019-06-27T21:39:07.205Z,80.95
2019-06-27T21:41:24.244Z,83.39
2019-06-27T21:43:52.812Z,83.05
2019-06-27T21:46:21.376Z,83.49
2019-06-27T21:48:49.899Z,83.68
2019-06-27T21:51:18.452Z,84.21
2019-06-27T21:53:46.950Z,83.25
2019-06-27T21:56:15.512Z,85.23
2019-06-27T21:58:44.036Z,85.49
2019-06-27T22:01:12.537Z,85.27
2019-06-27T22:03:41.118Z,84.63
2019-06-27T22:06:09.620Z,85.77
2019-06-27T22:08:38.140Z,85.43
2019-06-27T22:11:06.581Z,85.91
2019-06-27T22:13:35.206Z,85.44
2019-06-27T22:16:04.454Z,86.11
2019-06-27T22:18:33.006Z,88.42
2019-06-27T22:21:01.861Z,88.22
2019-06-27T22:23:30.426Z,85.03
2019-06-27T22:25:58.928Z,85.58
2019-06-27T22:28:27.650Z,86.34
2019-06-27T22:30:56.115Z,87.11
2019-06-27T22:33:24.648Z,89.71
2019-06-27T22:35:53.109Z,88.28
2019-06-27T22:38:39.561Z,89.64
2019-06-27T22:41:26.101Z,90.09
2019-06-27T22:44:12.123Z,90.29
2019-06-27T22:46:58.488Z,89.21
2019-06-27T22:49:26.516Z,90.52
2019-06-27T22:52:14.961Z,91.55
2019-06-27T22:54:45.244Z,88.55
2019-06-27T22:57:14.053Z,89.09
2019-06-27T22:59:42.589Z,89.98
2019-06-27T23:02:11.116Z,89.80
2019-06-27T23:04:39.737Z,89.45
2019-06-27T23:07:08.275Z,91.16
2019-06-27T23:09:36.827Z,91.44
2019-06-27T23:12:05.296Z,92.06
2019-06-27T23:14:33.820Z,89.47
2019-06-27T23:17:02.291Z,92.84
2019-06-27T23:19:30.822Z,90.56
2019-06-27T23:21:59.360Z,90.19
2019-06-27T23:24:27.870Z,90.94
2019-06-27T23:26:56.358Z,91.91
2019-06-27T23:29:24.900Z,93.51
2019-06-27T23:31:53.781Z,89.45
2019-06-27T23:34:22.307Z,93.46
2019-06-27T23:36:51.124Z,94.37
2019-06-27T23:39:19.630Z,95.15
2019-06-27T23:41:48.156Z,94.77
2019-06-27T23:44:16.701Z,94.42
2019-06-27T23:46:45.181Z,95.34
2019-06-27T23:49:13.701Z,94.31
2019-06-27T23:51:42.273Z,94.73
2019-06-27T23:54:10.822Z,96.15
2019-06-27T23:56:39.414Z,97.30
2019-06-27T23:59:07.951Z,97.62
